Time;durP1;ratioP1;P1;durP2;ratioP2;P2;SDS_P1;SDS_P2;PMS_P1;PMS_P2;Temp;Humidity;BMP_temperature;BMP_pressure;BME280_temperature;BME280_humidity;BME280_pressure;Samples;Min_cycle;Max_cycle;Signal;HPM_P1;HPM_P2
2022/06/28 00:01:34;;;;;;;;;;;26.90;60.10;;;;;;5012985;28;19918;-60
2022/06/28 00:03:59;;;;;;;;;;;26.80;60.10;;;;;;5002130;28;19920;-60
2022/06/28 00:06:24;;;;;;;;;;;26.80;60.10;;;;;;5011748;28;19914;-57
2022/06/28 00:08:50;;;;;;;;;;;26.80;60.10;;;;;;5023251;28;20382;-60
2022/06/28 00:11:15;;;;;;;;;;;26.80;60.10;;;;;;5017666;28;19913;-59
2022/06/28 00:13:41;;;;;;;;;;;26.80;60.10;;;;;;5003743;28;19964;-57
2022/06/28 00:16:06;;;;;;;;;;;26.80;60.10;;;;;;5007814;28;19921;-60
2022/06/28 00:18:33;;;;;;;;;;;26.80;60.20;;;;;;5021920;28;20003;-60
2022/06/28 00:20:58;;;;;;;;;;;26.80;60.20;;;;;;5020555;28;20143;-56
2022/06/28 00:23:24;;;;;;;;;;;26.80;60.20;;;;;;5003566;28;19913;-61
2022/06/28 00:25:49;;;;;;;;;;;26.80;60.20;;;;;;5003104;28;19917;-57
2022/06/28 00:28:14;;;;;;;;;;;26.70;60.00;;;;;;5023191;28;19914;-58
2022/06/28 00:30:40;;;;;;;;;;;26.80;60.00;;;;;;5022945;28;20210;-58
2022/06/28 00:33:05;;;;;;;;;;;26.80;59.90;;;;;;5003366;28;19914;-58
2022/06/28 00:35:31;;;;;;;;;;;26.80;59.90;;;;;;5003856;28;19914;-60
2022/06/28 00:37:56;;;;;;;;;;;26.80;59.80;;;;;;5019688;28;19913;-60
2022/06/28 00:40:22;;;;;;;;;;;26.80;59.80;;;;;;5023568;28;19999;-60
2022/06/28 00:42:48;;;;;;;;;;;26.80;59.70;;;;;;5003390;28;19920;-58
2022/06/28 00:45:13;;;;;;;;;;;26.70;59.70;;;;;;5003925;28;19917;-55
2022/06/28 00:47:39;;;;;;;;;;;26.70;59.60;;;;;;5014789;28;19921;-57
2022/06/28 00:50:04;;;;;;;;;;;26.70;59.60;;;;;;5023542;28;19913;-58
2022/06/28 00:52:30;;;;;;;;;;;26.70;59.50;;;;;;5012447;28;19971;-57
2022/06/28 00:54:55;;;;;;;;;;;26.70;59.50;;;;;;5003361;28;20624;-60
2022/06/28 00:57:21;;;;;;;;;;;26.70;59.50;;;;;;5011684;28;19979;-59
2022/06/28 00:59:46;;;;;;;;;;;26.70;59.50;;;;;;5023037;28;19928;-56
2022/06/28 01:02:12;;;;;;;;;;;26.70;59.50;;;;;;5014485;28;20098;-57
2022/06/28 01:04:37;;;;;;;;;;;26.70;59.60;;;;;;5001872;28;19925;-60
2022/06/28 01:07:03;;;;;;;;;;;26.70;59.60;;;;;;5007800;28;20381;-58
2022/06/28 01:09:29;;;;;;;;;;;26.70;59.60;;;;;;5022301;28;19913;-58
2022/06/28 01:11:54;;;;;;;;;;;26.70;59.60;;;;;;5019411;28;20536;-61
2022/06/28 01:14:19;;;;;;;;;;;26.70;59.70;;;;;;5002606;28;19967;-60
2022/06/28 01:16:45;;;;;;;;;;;26.60;59.60;;;;;;5004340;28;19917;-57
2022/06/28 01:19:10;;;;;;;;;;;26.70;59.70;;;;;;5022633;28;20459;-56
2022/06/28 01:21:36;;;;;;;;;;;26.70;59.70;;;;;;5021542;28;19913;-58
2022/06/28 01:24:02;;;;;;;;;;;26.60;59.70;;;;;;5003720;28;19917;-57
2022/06/28 01:26:29;;;;;;;;;;;26.60;59.60;;;;;;5002853;28;20406;-57
2022/06/28 01:28:54;;;;;;;;;;;26.60;59.50;;;;;;5019810;28;19952;-59
2022/06/28 01:31:20;;;;;;;;;;;26.60;59.40;;;;;;5021960;28;19967;-57
2022/06/28 01:33:45;;;;;;;;;;;26.60;59.30;;;;;;5007273;28;20205;-58
2022/06/28 01:36:11;;;;;;;;;;;26.50;59.20;;;;;;5002881;28;19921;-60
2022/06/28 01:38:38;;;;;;;;;;;26.50;59.20;;;;;;5015780;28;20421;-58
2022/06/28 01:41:03;;;;;;;;;;;26.50;59.00;;;;;;5036877;28;19956;-57
2022/06/28 01:43:29;;;;;;;;;;;26.50;59.00;;;;;;5010294;28;19956;-57
2022/06/28 01:45:54;;;;;;;;;;;26.50;58.90;;;;;;5002089;28;20150;-56
2022/06/28 01:48:20;;;;;;;;;;;26.60;58.90;;;;;;5012397;28;20627;-59
2022/06/28 01:50:46;;;;;;;;;;;26.50;58.80;;;;;;5022179;28;20016;-60
2022/06/28 01:53:11;;;;;;;;;;;26.50;58.80;;;;;;5014042;28;20377;-58
2022/06/28 01:55:37;;;;;;;;;;;26.50;58.80;;;;;;5030313;22;21639;-68
2022/06/28 01:58:03;;;;;;;;;;;26.50;58.70;;;;;;5045664;28;19913;-69
2022/06/28 02:00:29;;;;;;;;;;;26.50;58.60;;;;;;5045023;28;19924;-69
2022/06/28 02:02:55;;;;;;;;;;;26.50;58.50;;;;;;5045806;28;20355;-69
2022/06/28 02:05:20;;;;;;;;;;;26.50;58.50;;;;;;5045770;28;19916;-68
2022/06/28 02:07:47;;;;;;;;;;;26.50;58.50;;;;;;5043237;28;19916;-68
2022/06/28 02:10:12;;;;;;;;;;;26.50;58.50;;;;;;5025443;28;20287;-69
2022/06/28 02:12:37;;;;;;;;;;;26.50;58.40;;;;;;5025782;28;19912;-68
2022/06/28 02:15:03;;;;;;;;;;;26.50;58.40;;;;;;5045425;28;19910;-68
2022/06/28 02:17:28;;;;;;;;;;;26.50;58.40;;;;;;5045425;28;19909;-69
2022/06/28 02:19:54;;;;;;;;;;;26.50;58.30;;;;;;5026852;28;19905;-69
2022/06/28 02:22:20;;;;;;;;;;;26.50;58.30;;;;;;5024042;28;19905;-68
2022/06/28 02:24:45;;;;;;;;;;;26.50;58.40;;;;;;5041025;28;19908;-69
2022/06/28 02:27:10;;;;;;;;;;;26.40;58.30;;;;;;5045539;28;20351;-70
2022/06/28 02:29:36;;;;;;;;;;;26.50;58.40;;;;;;5030638;28;19910;-68
2022/06/28 02:32:01;;;;;;;;;;;26.40;58.20;;;;;;5025671;28;19909;-68
2022/06/28 02:42:39;;;;;;;;;;;26.40;58.30;;;;;;5025423;28;20004;-69
2022/06/28 02:45:05;;;;;;;;;;;26.40;58.30;;;;;;5041946;28;19912;-68
2022/06/28 02:47:31;;;;;;;;;;;26.40;58.30;;;;;;5045443;28;19905;-69
2022/06/28 02:49:56;;;;;;;;;;;26.30;58.30;;;;;;5030777;28;20326;-70
2022/06/28 02:52:22;;;;;;;;;;;26.40;58.30;;;;;;5025290;28;19916;-69
2022/06/28 02:54:47;;;;;;;;;;;26.40;58.40;;;;;;5038518;28;19909;-70
2022/06/28 02:57:12;;;;;;;;;;;26.40;58.40;;;;;;5045357;28;19912;-69
2022/06/28 02:59:38;;;;;;;;;;;26.40;58.40;;;;;;5033461;28;19905;-68
2022/06/28 03:02:03;;;;;;;;;;;26.30;58.40;;;;;;5025528;28;19963;-68
2022/06/28 03:04:29;;;;;;;;;;;26.30;58.40;;;;;;5034635;28;20517;-69
2022/06/28 03:06:54;;;;;;;;;;;26.30;58.30;;;;;;5044186;28;19962;-69
2022/06/28 03:09:20;;;;;;;;;;;26.30;58.40;;;;;;5037474;28;19913;-67
2022/06/28 03:11:45;;;;;;;;;;;26.30;58.30;;;;;;5026105;28;19916;-69
2022/06/28 03:14:11;;;;;;;;;;;26.30;58.30;;;;;;5030936;28;19904;-68
2022/06/28 03:16:36;;;;;;;;;;;26.30;58.30;;;;;;5046067;28;20440;-69
2022/06/28 03:19:01;;;;;;;;;;;26.30;58.20;;;;;;5042664;28;20050;-68
2022/06/28 03:21:27;;;;;;;;;;;26.30;58.20;;;;;;5025883;28;19905;-69
2022/06/28 03:23:52;;;;;;;;;;;26.30;58.10;;;;;;5028279;28;19912;-68
2022/06/28 03:26:18;;;;;;;;;;;26.30;58.20;;;;;;5050550;28;19931;-68
2022/06/28 03:28:43;;;;;;;;;;;26.20;58.10;;;;;;5052520;28;19956;-70
2022/06/28 03:31:09;;;;;;;;;;;26.30;58.20;;;;;;5030508;28;19905;-69
2022/06/28 03:33:34;;;;;;;;;;;26.20;58.10;;;;;;5030456;28;19909;-69
2022/06/28 03:36:00;;;;;;;;;;;26.20;58.10;;;;;;5030060;28;19912;-68
2022/06/28 03:38:25;;;;;;;;;;;26.20;58.10;;;;;;5029008;28;19906;-68
2022/06/28 03:40:50;;;;;;;;;;;26.20;58.10;;;;;;5043829;28;19905;-68
2022/06/28 03:43:16;;;;;;;;;;;26.20;58.10;;;;;;5048922;28;19912;-68
2022/06/28 03:45:41;;;;;;;;;;;26.20;58.10;;;;;;5034826;28;19920;-68
2022/06/28 03:48:07;;;;;;;;;;;26.20;58.10;;;;;;5028447;28;20380;-68
2022/06/28 03:50:32;;;;;;;;;;;26.20;58.20;;;;;;5038679;28;19905;-68
2022/06/28 03:52:58;;;;;;;;;;;26.20;58.20;;;;;;5046900;28;19911;-68
2022/06/28 03:55:23;;;;;;;;;;;26.20;58.20;;;;;;5038385;28;19905;-68
2022/06/28 03:57:49;;;;;;;;;;;26.20;58.20;;;;;;5026994;28;19913;-68
2022/06/28 04:00:14;;;;;;;;;;;26.20;58.20;;;;;;5035708;28;19913;-68
2022/06/28 04:02:40;;;;;;;;;;;26.20;58.20;;;;;;5047671;28;19905;-68
2022/06/28 04:05:05;;;;;;;;;;;26.20;58.20;;;;;;5041870;28;19987;-69
2022/06/28 04:07:31;;;;;;;;;;;26.20;58.30;;;;;;5026447;28;19905;-68
2022/06/28 04:09:56;;;;;;;;;;;26.10;59.20;;;;;;5045926;28;19911;-70
2022/06/28 04:12:22;;;;;;;;;;;26.10;59.80;;;;;;5027660;28;19909;-68
2022/06/28 04:14:47;;;;;;;;;;;25.90;59.30;;;;;;5028151;28;20303;-69
2022/06/28 04:17:12;;;;;;;;;;;25.70;59.50;;;;;;5028011;28;19912;-68
2022/06/28 04:19:39;;;;;;;;;;;25.60;59.70;;;;;;5027639;28;19905;-68
2022/06/28 04:22:04;;;;;;;;;;;25.60;60.30;;;;;;5007999;28;19912;-68
2022/06/28 04:24:30;;;;;;;;;;;25.50;60.00;;;;;;5007549;28;19917;-68
2022/06/28 04:26:55;;;;;;;;;;;25.50;60.20;;;;;;5044506;28;19912;-68
2022/06/28 04:29:20;;;;;;;;;;;25.50;60.30;;;;;;5048421;28;19911;-67
2022/06/28 04:31:46;;;;;;;;;;;25.40;60.60;;;;;;5032041;28;20427;-67
2022/06/28 04:34:11;;;;;;;;;;;25.40;60.60;;;;;;5028330;28;19905;-67
2022/06/28 04:36:37;;;;;;;;;;;25.30;60.90;;;;;;5042735;28;19916;-67
2022/06/28 04:39:02;;;;;;;;;;;25.30;60.90;;;;;;5048219;28;19955;-65
2022/06/28 04:41:28;;;;;;;;;;;25.20;61.10;;;;;;5034050;28;19913;-66
2022/06/28 04:43:53;;;;;;;;;;;25.20;61.10;;;;;;5027496;28;19913;-68
2022/06/28 04:46:19;;;;;;;;;;;25.20;61.20;;;;;;5037305;28;19912;-67
2022/06/28 04:48:45;;;;;;;;;;;25.10;61.10;;;;;;5046226;28;19956;-67
2022/06/28 04:51:13;;;;;;;;;;;25.10;61.20;;;;;;5038945;28;20035;-68
2022/06/28 04:53:39;;;;;;;;;;;25.00;61.50;;;;;;5027322;28;19909;-68
2022/06/28 04:56:05;;;;;;;;;;;25.00;61.50;;;;;;5034061;28;19917;-67
2022/06/28 04:58:30;;;;;;;;;;;25.00;61.40;;;;;;5047500;28;19916;-69
2022/06/28 05:00:56;;;;;;;;;;;25.00;61.50;;;;;;5041688;28;19936;-68
2022/06/28 05:03:21;;;;;;;;;;;24.90;61.50;;;;;;5027149;28;19919;-68
2022/06/28 05:05:47;;;;;;;;;;;24.90;61.50;;;;;;5028524;28;20017;-68
2022/06/28 05:08:13;;;;;;;;;;;24.90;61.30;;;;;;5046725;28;19919;-68
2022/06/28 05:10:38;;;;;;;;;;;24.70;61.40;;;;;;5044970;28;20318;-69
2022/06/28 05:13:04;;;;;;;;;;;24.70;61.20;;;;;;5026970;28;20338;-67
2022/06/28 05:15:29;;;;;;;;;;;24.70;61.30;;;;;;5026706;28;19921;-69
2022/06/28 05:17:54;;;;;;;;;;;24.70;61.30;;;;;;5046356;28;19909;-66
2022/06/28 05:20:20;;;;;;;;;;;24.70;60.90;;;;;;5046609;28;19915;-66
2022/06/28 05:22:45;;;;;;;;;;;24.70;61.10;;;;;;5028736;28;20345;-66
2022/06/28 05:25:11;;;;;;;;;;;24.70;60.70;;;;;;5026450;28;21177;-63
2022/06/28 05:27:36;;;;;;;;;;;24.70;60.90;;;;;;5034374;28;19963;-66
2022/06/28 05:30:02;;;;;;;;;;;24.60;60.60;;;;;;5027235;28;20295;-67
2022/06/28 05:32:28;;;;;;;;;;;24.50;60.80;;;;;;5040595;28;19909;-66
2022/06/28 05:34:53;;;;;;;;;;;24.50;60.70;;;;;;5046887;28;19913;-64
2022/06/28 05:37:18;;;;;;;;;;;24.60;60.60;;;;;;5035393;28;19912;-66
2022/06/28 05:39:44;;;;;;;;;;;24.50;60.50;;;;;;5027028;28;19916;-66
2022/06/28 05:42:10;;;;;;;;;;;24.50;60.40;;;;;;5036215;28;20391;-66
2022/06/28 05:44:35;;;;;;;;;;;24.50;60.30;;;;;;5046859;28;19920;-66
2022/06/28 05:47:01;;;;;;;;;;;24.20;60.90;;;;;;5037981;28;19909;-66
2022/06/28 05:49:26;;;;;;;;;;;24.30;60.40;;;;;;5027257;28;20387;-66
2022/06/28 05:51:52;;;;;;;;;;;24.40;59.90;;;;;;5031924;28;19920;-68
2022/06/28 05:54:17;;;;;;;;;;;24.10;60.30;;;;;;5045617;28;19909;-68
2022/06/28 05:56:43;;;;;;;;;;;24.20;60.20;;;;;;5041890;28;19920;-68
2022/06/28 05:59:08;;;;;;;;;;;24.30;60.20;;;;;;5025031;28;20288;-67
2022/06/28 06:01:34;;;;;;;;;;;24.30;59.90;;;;;;5027624;28;19913;-67
2022/06/28 06:03:59;;;;;;;;;;;24.40;59.90;;;;;;5046338;28;19909;-69
2022/06/28 06:06:25;;;;;;;;;;;24.40;59.90;;;;;;5046511;28;19975;-68
2022/06/28 06:08:51;;;;;;;;;;;24.40;59.90;;;;;;5025809;28;19913;-68
2022/06/28 06:11:16;;;;;;;;;;;24.20;59.40;;;;;;5025632;28;19916;-68
2022/06/28 06:13:41;;;;;;;;;;;24.10;59.30;;;;;;5043898;28;19917;-69
2022/06/28 06:16:07;;;;;;;;;;;24.20;59.80;;;;;;5045686;28;20010;-68
2022/06/28 06:18:32;;;;;;;;;;;24.20;59.60;;;;;;5011512;28;19909;-70
2022/06/28 06:20:58;;;;;;;;;;;24.30;59.80;;;;;;5025268;28;19913;-66
2022/06/28 06:23:23;;;;;;;;;;;24.50;59.90;;;;;;5039836;28;20646;-70
2022/06/28 06:25:49;;;;;;;;;;;24.60;59.30;;;;;;5045393;28;19919;-70
2022/06/28 06:28:14;;;;;;;;;;;24.70;59.40;;;;;;5033163;28;19916;-70
2022/06/28 06:30:41;;;;;;;;;;;24.70;59.10;;;;;;5025519;28;19913;-70
2022/06/28 06:33:06;;;;;;;;;;;24.80;59.00;;;;;;5035757;28;19962;-70
2022/06/28 06:35:32;;;;;;;;;;;24.80;58.90;;;;;;5043697;28;19921;-70
2022/06/28 06:38:00;;;;;;;;;;;24.90;59.00;;;;;;5036872;28;20399;-69
2022/06/28 06:40:26;;;;;;;;;;;24.90;58.80;;;;;;5024193;28;19909;-71
2022/06/28 06:42:52;;;;;;;;;;;24.80;58.50;;;;;;5032376;28;19909;-70
2022/06/28 06:45:17;;;;;;;;;;;24.90;58.60;;;;;;5045668;28;19917;-70
2022/06/28 06:47:42;;;;;;;;;;;24.90;58.40;;;;;;5040376;28;19909;-67
2022/06/28 06:50:08;;;;;;;;;;;24.90;58.40;;;;;;5025263;28;20367;-70
2022/06/28 06:52:34;;;;;;;;;;;24.80;58.00;;;;;;5027184;28;19994;-71
2022/06/28 06:55:00;;;;;;;;;;;24.90;58.30;;;;;;5045603;28;19909;-71
2022/06/28 06:57:25;;;;;;;;;;;24.80;58.00;;;;;;5045559;28;19924;-71
2022/06/28 06:59:50;;;;;;;;;;;24.80;58.00;;;;;;5029411;28;19909;-70
2022/06/28 07:02:16;;;;;;;;;;;24.80;58.00;;;;;;5029294;28;19909;-69
2022/06/28 07:04:41;;;;;;;;;;;24.90;58.20;;;;;;5048397;28;19920;-71
2022/06/28 07:07:07;;;;;;;;;;;24.90;58.30;;;;;;5049428;28;19909;-70
2022/06/28 07:09:32;;;;;;;;;;;24.90;58.30;;;;;;5031787;28;19932;-70
2022/06/28 07:11:58;;;;;;;;;;;25.00;59.10;;;;;;5029002;28;19917;-71
2022/06/28 07:14:23;;;;;;;;;;;24.90;59.00;;;;;;5044453;28;19970;-71
2022/06/28 07:16:49;;;;;;;;;;;24.90;58.80;;;;;;5049305;28;19916;-71
2022/06/28 07:19:14;;;;;;;;;;;24.80;58.70;;;;;;5036262;28;19909;-71
2022/06/28 07:21:40;;;;;;;;;;;24.70;58.50;;;;;;5029912;28;20372;-70
2022/06/28 07:24:07;;;;;;;;;;;24.80;58.00;;;;;;5041662;28;19908;-71
2022/06/28 07:26:35;;;;;;;;;;;24.70;57.80;;;;;;5050135;28;19920;-70
2022/06/28 07:29:01;;;;;;;;;;;24.70;57.70;;;;;;5040273;28;20458;-70
2022/06/28 07:31:28;;;;;;;;;;;24.70;57.60;;;;;;5029002;28;19915;-70
2022/06/28 07:33:53;;;;;;;;;;;24.70;57.50;;;;;;5039025;28;20387;-70
2022/06/28 07:36:19;;;;;;;;;;;24.70;57.30;;;;;;5049312;28;19913;-70
2022/06/28 07:38:44;;;;;;;;;;;24.60;57.20;;;;;;5042924;28;20398;-70
2022/06/28 07:41:09;;;;;;;;;;;24.60;57.20;;;;;;5029261;28;20115;-69
2022/06/28 07:43:35;;;;;;;;;;;24.60;57.30;;;;;;5034089;28;19920;-69
2022/06/28 07:46:01;;;;;;;;;;;24.70;57.50;;;;;;5049671;28;19912;-69
2022/06/28 07:48:26;;;;;;;;;;;24.60;57.10;;;;;;5047129;28;19915;-69
2022/06/28 07:53:36;;;;;;;;;;;24.60;56.70;;;;;;5032262;28;19969;-69
2022/06/28 07:56:01;;;;;;;;;;;24.60;56.60;;;;;;5048208;28;20387;-70
2022/06/28 07:58:27;;;;;;;;;;;24.60;56.50;;;;;;5048634;28;19909;-70
2022/06/28 08:00:52;;;;;;;;;;;24.60;57.20;;;;;;5029680;28;20438;-70
2022/06/28 08:03:18;;;;;;;;;;;24.50;56.60;;;;;;5029548;28;19913;-70
2022/06/28 08:05:43;;;;;;;;;;;24.50;56.50;;;;;;5048811;28;19939;-69
2022/06/28 08:08:09;;;;;;;;;;;24.50;56.60;;;;;;5048963;28;19913;-69
2022/06/28 08:10:34;;;;;;;;;;;24.50;56.40;;;;;;5048851;28;20034;-69
2022/06/28 08:13:00;;;;;;;;;;;24.50;56.50;;;;;;5049636;28;19915;-70
2022/06/28 08:15:25;;;;;;;;;;;24.50;56.80;;;;;;5034477;28;19909;-69
2022/06/28 08:17:51;;;;;;;;;;;24.50;56.80;;;;;;5028945;28;20600;-69
2022/06/28 08:20:16;;;;;;;;;;;24.40;57.00;;;;;;5042769;28;19920;-69
2022/06/28 08:22:42;;;;;;;;;;;24.50;57.30;;;;;;5048749;28;20326;-70
2022/06/28 08:25:07;;;;;;;;;;;24.50;57.20;;;;;;5035677;28;19919;-69
2022/06/28 08:27:33;;;;;;;;;;;24.50;57.10;;;;;;5028824;28;19910;-71
2022/06/28 08:29:58;;;;;;;;;;;24.50;57.10;;;;;;5037096;28;19909;-70
2022/06/28 08:32:24;;;;;;;;;;;24.50;57.20;;;;;;5048426;28;20291;-70
2022/06/28 08:34:49;;;;;;;;;;;24.50;57.20;;;;;;5039744;28;19963;-70
2022/06/28 08:37:15;;;;;;;;;;;24.50;57.40;;;;;;5027684;28;19919;-69
2022/06/28 08:39:40;;;;;;;;;;;24.50;57.30;;;;;;5034885;28;19916;-70
2022/06/28 08:42:05;;;;;;;;;;;24.60;57.20;;;;;;5048515;28;19913;-69
2022/06/28 08:44:32;;;;;;;;;;;24.60;57.20;;;;;;5045086;28;20406;-70
2022/06/28 08:46:57;;;;;;;;;;;24.60;57.20;;;;;;5028444;28;19976;-69
2022/06/28 08:49:38;;;;;;;;;;;24.60;57.40;;;;;;5028994;28;19952;-70
2022/06/28 08:52:04;;;;;;;;;;;24.60;57.00;;;;;;5046581;28;19980;-70
2022/06/28 08:54:29;;;;;;;;;;;24.60;56.70;;;;;;5044477;28;20599;-70
2022/06/28 08:56:55;;;;;;;;;;;24.60;56.90;;;;;;5026833;28;20448;-70
2022/06/28 08:59:22;;;;;;;;;;;24.60;56.90;;;;;;5027995;28;19916;-70
2022/06/28 09:01:49;;;;;;;;;;;24.70;57.00;;;;;;5046240;28;20299;-69
2022/06/28 09:04:14;;;;;;;;;;;24.70;57.10;;;;;;5046715;28;20754;-69
2022/06/28 09:06:40;;;;;;;;;;;24.70;57.20;;;;;;5027436;28;19909;-70
2022/06/28 09:09:05;;;;;;;;;;;24.70;57.20;;;;;;5027806;28;20299;-70
2022/06/28 09:11:37;;;;;;;;;;;24.70;57.40;;;;;;5044018;28;19912;-71
2022/06/28 09:14:03;;;;;;;;;;;24.70;57.10;;;;;;5046135;28;19916;-70
2022/06/28 09:16:28;;;;;;;;;;;24.70;57.10;;;;;;5030227;28;19909;-70
2022/06/28 09:18:54;;;;;;;;;;;24.70;57.30;;;;;;5027633;28;19909;-70
2022/06/28 09:21:19;;;;;;;;;;;24.70;57.30;;;;;;5041020;28;19909;-69
2022/06/28 09:23:46;;;;;;;;;;;24.70;57.10;;;;;;5046007;28;20143;-70
2022/06/28 09:26:18;;;;;;;;;;;24.70;57.90;;;;;;5034881;28;19917;-69
2022/06/28 09:28:47;;;;;;;;;;;24.70;56.60;;;;;;5025832;28;20002;-70
2022/06/28 09:31:23;;;;;;;;;;;24.70;56.50;;;;;;5037502;28;20008;-70
2022/06/28 09:34:02;;;;;;;;;;;24.70;56.90;;;;;;5046150;28;19908;-70
2022/06/28 09:36:28;;;;;;;;;;;24.70;57.00;;;;;;5034183;28;19952;-68
2022/06/28 09:38:56;;;;;;;;;;;24.70;56.50;;;;;;5027224;28;20609;-68
2022/06/28 09:41:22;;;;;;;;;;;24.70;56.20;;;;;;5037164;28;19909;-69
2022/06/28 09:43:58;;;;;;;;;;;24.70;56.00;;;;;;5046038;28;19916;-67
2022/06/28 09:46:26;;;;;;;;;;;24.70;55.70;;;;;;5034652;28;19913;-69
2022/06/28 09:48:54;;;;;;;;;;;24.70;55.60;;;;;;5025838;28;19915;-70
2022/06/28 09:51:23;;;;;;;;;;;24.70;55.30;;;;;;5035580;28;19909;-69
2022/06/28 09:53:50;;;;;;;;;;;24.70;54.90;;;;;;5046825;28;19940;-70
2022/06/28 09:56:15;;;;;;;;;;;24.70;54.60;;;;;;5035619;28;20415;-69
2022/06/28 09:58:40;;;;;;;;;;;24.60;55.10;;;;;;5019724;28;19916;-68
2022/06/28 10:01:07;;;;;;;;;;;24.70;56.10;;;;;;5025233;28;20264;-67
2022/06/28 10:03:32;;;;;;;;;;;24.70;55.80;;;;;;5025538;28;19941;-68
2022/06/28 10:05:58;;;;;;;;;;;24.70;56.20;;;;;;5031677;28;19913;-67
2022/06/28 10:08:24;;;;;;;;;;;24.70;55.00;;;;;;5047335;28;19912;-68
2022/06/28 10:10:50;;;;;;;;;;;24.70;55.30;;;;;;5045430;28;20269;-68
2022/06/28 10:16:18;;;;;;;;;;;24.60;53.60;;;;;;5044414;28;19916;-68
2022/06/28 10:18:43;;;;;;;;;;;24.50;52.70;;;;;;5027096;28;19913;-69
2022/06/28 10:21:09;;;;;;;;;;;24.50;53.20;;;;;;5025494;28;20386;-69
2022/06/28 10:23:36;;;;;;;;;;;24.60;53.60;;;;;;5027092;28;19909;-70
2022/06/28 10:26:09;;;;;;;;;;;24.60;53.80;;;;;;5028676;28;20004;-71
2022/06/28 10:28:37;;;;;;;;;;;24.70;54.00;;;;;;5045245;28;19991;-69
2022/06/28 10:31:20;;;;;;;;;;;24.70;54.20;;;;;;5043272;28;20713;-68
2022/06/28 10:33:46;;;;;;;;;;;24.80;54.40;;;;;;5025930;28;20426;-70
2022/06/28 10:36:12;;;;;;;;;;;24.80;54.70;;;;;;5027833;28;20023;-68
2022/06/28 10:38:38;;;;;;;;;;;24.80;54.70;;;;;;5044199;28;19909;-68
2022/06/28 10:41:10;;;;;;;;;;;24.80;54.90;;;;;;5044721;28;19963;-68
2022/06/28 10:43:42;;;;;;;;;;;24.90;55.10;;;;;;5025274;28;19916;-67
2022/06/28 10:46:08;;;;;;;;;;;24.90;55.00;;;;;;5024417;28;20635;-69
2022/06/28 10:48:48;;;;;;;;;;;24.90;55.40;;;;;;5044968;28;19996;-68
2022/06/28 10:51:14;;;;;;;;;;;24.90;55.40;;;;;;5045242;28;19909;-68
2022/06/28 10:53:54;;;;;;;;;;;24.90;55.50;;;;;;5044411;28;19916;-68
2022/06/28 10:56:20;;;;;;;;;;;24.90;55.60;;;;;;5044608;28;19993;-68
2022/06/28 10:59:04;;;;;;;;;;;24.90;55.70;;;;;;5025418;28;20368;-68
2022/06/28 11:01:38;;;;;;;;;;;24.90;55.70;;;;;;5026110;28;20444;-68
2022/06/28 11:04:19;;;;;;;;;;;24.90;55.70;;;;;;5045093;28;19908;-68
2022/06/28 11:06:45;;;;;;;;;;;24.90;55.70;;;;;;5042300;28;19921;-68
2022/06/28 11:09:23;;;;;;;;;;;24.90;55.90;;;;;;5025227;28;19996;-68
2022/06/28 11:12:04;;;;;;;;;;;24.90;56.10;;;;;;5026154;28;20038;-68
2022/06/28 11:14:29;;;;;;;;;;;24.90;55.90;;;;;;5045324;28;19995;-68
2022/06/28 11:16:55;;;;;;;;;;;24.90;56.00;;;;;;5042182;28;20012;-69
2022/06/28 11:19:20;;;;;;;;;;;24.90;55.90;;;;;;5024364;28;19909;-69
2022/06/28 11:21:46;;;;;;;;;;;24.90;55.90;;;;;;5024536;28;19920;-68
2022/06/28 11:24:11;;;;;;;;;;;24.90;56.00;;;;;;5043476;28;19913;-68
2022/06/28 11:29:21;;;;;;;;;;;24.90;56.20;;;;;;5005087;28;19917;-68
2022/06/28 11:31:46;;;;;;;;;;;24.90;56.10;;;;;;5004868;28;20308;-68
2022/06/28 11:34:12;;;;;;;;;;;24.90;56.10;;;;;;5043284;28;20120;-68
2022/06/28 11:36:37;;;;;;;;;;;24.90;56.20;;;;;;5043544;28;19909;-68
2022/06/28 11:39:03;;;;;;;;;;;24.90;56.30;;;;;;5027197;28;19914;-68
2022/06/28 11:41:32;;;;;;;;;;;25.00;56.40;;;;;;5024627;28;20447;-68
2022/06/28 11:43:58;;;;;;;;;;;24.90;56.30;;;;;;5041433;28;19916;-68
2022/06/28 11:46:24;;;;;;;;;;;25.00;56.30;;;;;;5047243;28;20383;-68
2022/06/28 11:48:49;;;;;;;;;;;25.00;56.20;;;;;;5033777;28;19916;-68
2022/06/28 11:51:23;;;;;;;;;;;25.00;56.20;;;;;;5028143;28;19909;-68
2022/06/28 11:53:48;;;;;;;;;;;25.00;56.30;;;;;;5041920;28;20011;-68
2022/06/28 11:56:13;;;;;;;;;;;25.00;56.30;;;;;;5046735;28;20379;-68
2022/06/28 11:58:39;;;;;;;;;;;25.00;56.30;;;;;;5036372;28;19955;-68
2022/06/28 12:01:05;;;;;;;;;;;25.00;56.40;;;;;;5028159;28;19916;-69
2022/06/28 12:03:31;;;;;;;;;;;25.00;56.40;;;;;;5038168;28;20359;-68
2022/06/28 12:06:00;;;;;;;;;;;25.00;56.50;;;;;;5030265;28;19913;-68
2022/06/28 12:08:42;;;;;;;;;;;25.00;56.60;;;;;;5040112;28;19956;-67
2022/06/28 12:11:07;;;;;;;;;;;25.00;56.50;;;;;;5027941;28;19913;-68
2022/06/28 12:13:33;;;;;;;;;;;25.00;56.60;;;;;;5035727;28;19920;-68
2022/06/28 12:15:58;;;;;;;;;;;25.00;56.50;;;;;;5046823;28;19955;-68
2022/06/28 12:18:24;;;;;;;;;;;25.00;56.60;;;;;;5040014;28;19909;-68
2022/06/28 12:20:53;;;;;;;;;;;25.10;56.60;;;;;;5027502;28;19909;-68
2022/06/28 12:23:18;;;;;;;;;;;25.00;56.50;;;;;;5033191;28;20439;-68
2022/06/28 12:25:44;;;;;;;;;;;25.10;56.50;;;;;;5047124;28;19912;-68
2022/06/28 12:28:09;;;;;;;;;;;25.10;56.60;;;;;;5044451;28;20207;-69
2022/06/28 12:30:34;;;;;;;;;;;25.10;56.60;;;;;;5027601;28;19913;-68
2022/06/28 12:33:00;;;;;;;;;;;25.10;56.60;;;;;;5028851;28;19920;-69
2022/06/28 12:35:25;;;;;;;;;;;25.10;56.60;;;;;;5047578;28;20394;-68
2022/06/28 12:37:52;;;;;;;;;;;25.10;56.60;;;;;;5047490;28;19908;-68
2022/06/28 12:40:18;;;;;;;;;;;25.10;56.50;;;;;;5026943;28;19929;-68
2022/06/28 12:42:44;;;;;;;;;;;25.10;56.40;;;;;;5025899;28;20031;-68
2022/06/28 12:45:10;;;;;;;;;;;25.10;56.60;;;;;;5025019;28;20418;-68
2022/06/28 12:47:36;;;;;;;;;;;25.10;56.60;;;;;;5027280;28;20301;-68
2022/06/28 12:50:04;;;;;;;;;;;25.10;56.50;;;;;;5041927;28;19913;-68
2022/06/28 12:52:30;;;;;;;;;;;25.10;56.70;;;;;;5045178;28;19943;-68
2022/06/28 12:54:58;;;;;;;;;;;25.10;56.60;;;;;;5030570;28;19920;-68
2022/06/28 12:57:24;;;;;;;;;;;25.10;56.60;;;;;;5025301;28;19971;-67
2022/06/28 12:59:49;;;;;;;;;;;25.10;56.60;;;;;;5038176;28;19916;-68
2022/06/28 13:02:15;;;;;;;;;;;25.10;56.70;;;;;;5044884;28;19927;-68
2022/06/28 13:04:41;;;;;;;;;;;25.10;56.60;;;;;;5033784;28;19920;-69
2022/06/28 13:07:06;;;;;;;;;;;25.10;56.40;;;;;;5024838;28;19952;-69
2022/06/28 13:09:32;;;;;;;;;;;25.10;56.60;;;;;;5033956;28;20048;-68
2022/06/28 13:11:57;;;;;;;;;;;25.10;56.50;;;;;;5044550;28;19913;-69
2022/06/28 13:14:22;;;;;;;;;;;25.10;56.60;;;;;;5038011;28;19913;-68
2022/06/28 13:16:48;;;;;;;;;;;25.20;56.70;;;;;;5024840;28;20803;-69
2022/06/28 13:19:13;;;;;;;;;;;25.20;56.80;;;;;;5030338;28;19916;-68
2022/06/28 13:21:39;;;;;;;;;;;25.20;56.60;;;;;;5044353;28;19920;-68
2022/06/28 13:24:04;;;;;;;;;;;25.20;56.60;;;;;;5041194;28;19914;-68
2022/06/28 13:26:30;;;;;;;;;;;25.20;56.50;;;;;;5024140;28;20358;-68
2022/06/28 13:28:55;;;;;;;;;;;25.20;56.60;;;;;;5025634;28;19913;-68
2022/06/28 13:31:21;;;;;;;;;;;25.20;56.80;;;;;;5044564;28;19975;-67
2022/06/28 13:33:46;;;;;;;;;;;25.20;56.60;;;;;;5044509;28;19920;-68
2022/06/28 13:36:12;;;;;;;;;;;25.20;56.40;;;;;;5025030;28;19921;-69
2022/06/28 13:38:39;;;;;;;;;;;25.20;56.60;;;;;;5023835;28;20407;-69
2022/06/28 13:41:04;;;;;;;;;;;25.20;56.60;;;;;;5039978;28;19913;-69
2022/06/28 13:43:33;;;;;;;;;;;25.20;56.50;;;;;;5044335;28;19913;-69
2022/06/28 13:46:05;;;;;;;;;;;25.20;56.30;;;;;;5028112;28;19967;-69
2022/06/28 13:48:31;;;;;;;;;;;25.20;57.00;;;;;;5024435;28;19913;-68
2022/06/28 13:50:56;;;;;;;;;;;25.30;56.60;;;;;;5020398;28;19913;-70
2022/06/28 13:53:23;;;;;;;;;;;25.20;56.50;;;;;;5044521;28;20280;-68
2022/06/28 13:55:49;;;;;;;;;;;25.20;56.40;;;;;;5029827;28;19964;-68
2022/06/28 13:58:15;;;;;;;;;;;25.30;56.80;;;;;;5024154;28;20324;-69
2022/06/28 14:00:40;;;;;;;;;;;25.20;56.50;;;;;;5017462;28;19916;-68
2022/06/28 14:03:06;;;;;;;;;;;25.20;56.60;;;;;;5042180;28;20338;-69
2022/06/28 14:05:31;;;;;;;;;;;25.30;56.60;;;;;;5032404;28;19966;-69
2022/06/28 14:07:57;;;;;;;;;;;25.30;56.50;;;;;;5023014;28;19917;-69
2022/06/28 14:10:22;;;;;;;;;;;25.30;56.50;;;;;;5030516;28;19920;-68
2022/06/28 14:12:48;;;;;;;;;;;25.30;56.40;;;;;;5043357;28;20268;-68
2022/06/28 14:15:13;;;;;;;;;;;25.30;56.60;;;;;;5037654;28;19917;-68
2022/06/28 14:17:39;;;;;;;;;;;25.30;56.40;;;;;;5022595;28;19913;-68
2022/06/28 14:20:04;;;;;;;;;;;25.30;56.20;;;;;;5027398;28;19971;-67
2022/06/28 14:22:30;;;;;;;;;;;25.30;56.50;;;;;;5043622;28;19917;-66
2022/06/28 14:24:55;;;;;;;;;;;25.30;56.30;;;;;;5041981;28;20379;-68
2022/06/28 14:27:22;;;;;;;;;;;25.30;56.30;;;;;;5023525;28;21192;-68